sensor_id;sensor_type;location;lat;lon;timestamp;pressure;altitude;pressure_sealevel;temperature;humidity
43161;BME280;40968;52.342;5.528;2023-05-20T00:01:49;102381.84;;;12.35;55.33
43161;BME280;40968;52.342;5.528;2023-05-20T00:04:16;102546.53;;;13.34;55.50
43161;BME280;40968;52.342;5.528;2023-05-20T00:06:42;102515.19;;;13.17;55.72
43161;BME280;40968;52.342;5.528;2023-05-20T00:09:09;102604.06;;;13.64;55.88
43161;BME280;40968;52.342;5.528;2023-05-20T00:11:37;102571.28;;;13.41;56.16
43161;BME280;40968;52.342;5.528;2023-05-20T00:14:04;102549.84;;;13.23;56.52
43161;BME280;40968;52.342;5.528;2023-05-20T00:16:30;102609.84;;;13.57;56.62
43161;BME280;40968;52.342;5.528;2023-05-20T00:18:57;102615.41;;;13.54;56.74
43161;BME280;40968;52.342;5.528;2023-05-20T00:21:24;102512.81;;;12.97;56.91
43161;BME280;40968;52.342;5.528;2023-05-20T00:23:50;102609.34;;;13.51;56.99
43161;BME280;40968;52.342;5.528;2023-05-20T00:26:17;102542.31;;;12.98;57.38
43161;BME280;40968;52.342;5.528;2023-05-20T00:28:45;102566.16;;;13.20;57.88
43161;BME280;40968;52.342;5.528;2023-05-20T00:31:12;102538.41;;;13.04;58.05
43161;BME280;40968;52.342;5.528;2023-05-20T00:33:38;102545.88;;;13.15;58.24
43161;BME280;40968;52.342;5.528;2023-05-20T00:36:05;102565.13;;;13.23;58.18
43161;BME280;40968;52.342;5.528;2023-05-20T00:38:32;102368.59;;;12.00;58.16
43161;BME280;40968;52.342;5.528;2023-05-20T00:40:59;102596.13;;;13.46;58.69
43161;BME280;40968;52.342;5.528;2023-05-20T00:43:25;102601.53;;;13.46;58.58
43161;BME280;40968;52.342;5.528;2023-05-20T00:45:54;102606.22;;;13.42;58.56
43161;BME280;40968;52.342;5.528;2023-05-20T00:48:21;102598.22;;;13.41;58.96
43161;BME280;40968;52.342;5.528;2023-05-20T00:50:48;102557.56;;;13.14;58.82
43161;BME280;40968;52.342;5.528;2023-05-20T00:53:15;102598.41;;;13.38;59.08
43161;BME280;40968;52.342;5.528;2023-05-20T00:55:43;102467.34;;;12.60;59.10
43161;BME280;40968;52.342;5.528;2023-05-20T00:58:10;102595.09;;;13.33;59.41
43161;BME280;40968;52.342;5.528;2023-05-20T01:00:36;102598.13;;;13.26;59.45
43161;BME280;40968;52.342;5.528;2023-05-20T01:03:05;102535.91;;;12.85;59.54
43161;BME280;40968;52.342;5.528;2023-05-20T01:05:32;102596.56;;;13.22;59.55
43161;BME280;40968;52.342;5.528;2023-05-20T01:07:59;102587.69;;;13.20;59.39
43161;BME280;40968;52.342;5.528;2023-05-20T01:10:27;102544.50;;;12.91;59.43
43161;BME280;40968;52.342;5.528;2023-05-20T01:12:57;102543.53;;;12.92;59.11
43161;BME280;40968;52.342;5.528;2023-05-20T01:15:27;102579.31;;;13.10;59.55
43161;BME280;40968;52.342;5.528;2023-05-20T01:17:57;102576.72;;;13.09;59.54
43161;BME280;40968;52.342;5.528;2023-05-20T01:20:27;102481.59;;;12.46;59.44
43161;BME280;40968;52.342;5.528;2023-05-20T01:22:55;102578.00;;;13.02;59.50
43161;BME280;40968;52.342;5.528;2023-05-20T01:25:23;102472.22;;;12.37;59.81
43161;BME280;40968;52.342;5.528;2023-05-20T01:27:51;102576.44;;;12.98;60.11
43161;BME280;40968;52.342;5.528;2023-05-20T01:30:20;102579.22;;;12.96;60.17
43161;BME280;40968;52.342;5.528;2023-05-20T01:32:49;102505.28;;;12.55;60.07
43161;BME280;40968;52.342;5.528;2023-05-20T01:35:16;102551.09;;;12.86;60.56
43161;BME280;40968;52.342;5.528;2023-05-20T01:37:44;102560.03;;;12.86;61.02
43161;BME280;40968;52.342;5.528;2023-05-20T01:40:14;102552.13;;;12.83;61.09
43161;BME280;40968;52.342;5.528;2023-05-20T01:42:42;102555.78;;;12.82;61.01
43161;BME280;40968;52.342;5.528;2023-05-20T01:45:10;102468.22;;;12.28;61.10
43161;BME280;40968;52.342;5.528;2023-05-20T01:47:37;102490.94;;;12.39;61.30
43161;BME280;40968;52.342;5.528;2023-05-20T01:50:04;102554.31;;;12.76;61.41
43161;BME280;40968;52.342;5.528;2023-05-20T01:52:32;102453.56;;;12.18;61.27
43161;BME280;40968;52.342;5.528;2023-05-20T01:54:59;102486.38;;;12.25;61.41
43161;BME280;40968;52.342;5.528;2023-05-20T01:57:27;102461.09;;;12.11;61.36
43161;BME280;40968;52.342;5.528;2023-05-20T01:59:54;102555.69;;;12.68;61.48
43161;BME280;40968;52.342;5.528;2023-05-20T02:02:20;102435.75;;;12.00;60.92
43161;BME280;40968;52.342;5.528;2023-05-20T02:04:48;102419.06;;;11.77;61.46
43161;BME280;40968;52.342;5.528;2023-05-20T02:07:16;102477.41;;;12.08;61.73
43161;BME280;40968;52.342;5.528;2023-05-20T02:09:44;102551.00;;;12.55;61.30
43161;BME280;40968;52.342;5.528;2023-05-20T02:12:10;102506.88;;;12.26;61.33
43161;BME280;40968;52.342;5.528;2023-05-20T02:14:42;102455.84;;;11.92;61.61
43161;BME280;40968;52.342;5.528;2023-05-20T02:17:09;102498.19;;;12.05;61.78
43161;BME280;40968;52.342;5.528;2023-05-20T02:19:35;102492.03;;;12.03;61.92
43161;BME280;40968;52.342;5.528;2023-05-20T02:22:02;102475.31;;;11.98;62.04
43161;BME280;40968;52.342;5.528;2023-05-20T02:24:29;102442.09;;;11.81;61.93
43161;BME280;40968;52.342;5.528;2023-05-20T02:26:56;102542.84;;;12.41;62.14
43161;BME280;40968;52.342;5.528;2023-05-20T02:29:23;102491.88;;;12.06;62.24
43161;BME280;40968;52.342;5.528;2023-05-20T02:31:51;102553.75;;;12.38;62.50
43161;BME280;40968;52.342;5.528;2023-05-20T02:34:19;102501.81;;;12.04;62.40
43161;BME280;40968;52.342;5.528;2023-05-20T02:36:45;102503.72;;;12.02;62.97
43161;BME280;40968;52.342;5.528;2023-05-20T02:39:12;102546.19;;;12.28;62.91
43161;BME280;40968;52.342;5.528;2023-05-20T02:41:39;102474.16;;;11.84;62.98
43161;BME280;40968;52.342;5.528;2023-05-20T02:44:06;102535.59;;;12.25;62.97
43161;BME280;40968;52.342;5.528;2023-05-20T02:46:33;102444.34;;;11.73;62.99
43161;BME280;40968;52.342;5.528;2023-05-20T02:49:01;102536.72;;;12.21;63.45
43161;BME280;40968;52.342;5.528;2023-05-20T02:51:28;102526.63;;;12.09;63.30
43161;BME280;40968;52.342;5.528;2023-05-20T02:53:56;102537.66;;;12.20;63.18
43161;BME280;40968;52.342;5.528;2023-05-20T02:56:22;102546.84;;;12.16;63.31
43161;BME280;40968;52.342;5.528;2023-05-20T02:58:49;102530.09;;;12.11;63.24
43161;BME280;40968;52.342;5.528;2023-05-20T03:01:16;102537.38;;;12.09;63.23
43161;BME280;40968;52.342;5.528;2023-05-20T03:03:43;102535.81;;;12.05;63.14
43161;BME280;40968;52.342;5.528;2023-05-20T03:06:11;102539.59;;;12.01;63.32
43161;BME280;40968;52.342;5.528;2023-05-20T03:08:37;102454.72;;;11.45;63.38
43161;BME280;40968;52.342;5.528;2023-05-20T03:11:07;102539.13;;;11.92;63.32
43161;BME280;40968;52.342;5.528;2023-05-20T03:13:33;102532.00;;;11.91;63.38
43161;BME280;40968;52.342;5.528;2023-05-20T03:16:00;102421.97;;;11.21;63.69
43161;BME280;40968;52.342;5.528;2023-05-20T03:18:27;102541.28;;;11.86;63.36
43161;BME280;40968;52.342;5.528;2023-05-20T03:20:53;102545.75;;;11.85;63.53
43161;BME280;40968;52.342;5.528;2023-05-20T03:23:21;102530.66;;;11.83;63.68
43161;BME280;40968;52.342;5.528;2023-05-20T03:25:48;102540.56;;;11.82;63.54
43161;BME280;40968;52.342;5.528;2023-05-20T03:28:15;102542.31;;;11.83;63.61
43161;BME280;40968;52.342;5.528;2023-05-20T03:30:41;102531.69;;;11.80;63.76
43161;BME280;40968;52.342;5.528;2023-05-20T03:33:08;102535.81;;;11.87;63.86
43161;BME280;40968;52.342;5.528;2023-05-20T03:35:34;102549.25;;;11.87;63.89
43161;BME280;40968;52.342;5.528;2023-05-20T03:38:01;102472.97;;;11.39;63.91
43161;BME280;40968;52.342;5.528;2023-05-20T03:40:29;102542.94;;;11.88;63.89
43161;BME280;40968;52.342;5.528;2023-05-20T03:42:56;102432.56;;;11.24;63.99
43161;BME280;40968;52.342;5.528;2023-05-20T03:45:22;102483.59;;;11.58;64.67
43161;BME280;40968;52.342;5.528;2023-05-20T03:47:49;102538.97;;;11.96;64.32
43161;BME280;40968;52.342;5.528;2023-05-20T03:50:16;102297.50;;;10.55;64.12
43161;BME280;40968;52.342;5.528;2023-05-20T03:52:43;102536.75;;;11.86;64.37
43161;BME280;40968;52.342;5.528;2023-05-20T03:55:09;102492.38;;;11.61;64.20
43161;BME280;40968;52.342;5.528;2023-05-20T03:57:37;102412.84;;;11.25;64.30
43161;BME280;40968;52.342;5.528;2023-05-20T04:00:05;102341.28;;;10.73;64.33
43161;BME280;40968;52.342;5.528;2023-05-20T04:02:35;102430.19;;;11.36;64.26
43161;BME280;40968;52.342;5.528;2023-05-20T04:05:02;102484.00;;;11.68;64.29
43161;BME280;40968;52.342;5.528;2023-05-20T04:07:29;102445.97;;;11.42;64.35
43161;BME280;40968;52.342;5.528;2023-05-20T04:09:56;102543.25;;;12.00;64.64
43161;BME280;40968;52.342;5.528;2023-05-20T04:12:23;102478.97;;;11.61;64.68
43161;BME280;40968;52.342;5.528;2023-05-20T04:14:56;102487.63;;;11.67;64.64
43161;BME280;40968;52.342;5.528;2023-05-20T04:17:22;102475.09;;;11.67;64.73
43161;BME280;40968;52.342;5.528;2023-05-20T04:19:49;102469.72;;;11.67;64.79
43161;BME280;40968;52.342;5.528;2023-05-20T04:22:16;102517.72;;;11.91;64.71
43161;BME280;40968;52.342;5.528;2023-05-20T04:24:42;102449.72;;;11.55;65.06
43161;BME280;40968;52.342;5.528;2023-05-20T04:27:10;102472.41;;;11.67;65.14
43161;BME280;40968;52.342;5.528;2023-05-20T04:29:36;102470.19;;;11.75;64.80
43161;BME280;40968;52.342;5.528;2023-05-20T04:32:07;102546.22;;;12.11;64.68
43161;BME280;40968;52.342;5.528;2023-05-20T04:34:35;102542.59;;;12.12;64.87
43161;BME280;40968;52.342;5.528;2023-05-20T04:37:01;102537.31;;;12.10;64.86
43161;BME280;40968;52.342;5.528;2023-05-20T04:39:28;102486.84;;;11.82;65.36
43161;BME280;40968;52.342;5.528;2023-05-20T04:41:55;102468.75;;;11.68;64.98
43161;BME280;40968;52.342;5.528;2023-05-20T04:44:22;102455.72;;;11.60;64.88
43161;BME280;40968;52.342;5.528;2023-05-20T04:46:50;102546.22;;;12.11;65.04
43161;BME280;40968;52.342;5.528;2023-05-20T04:49:19;102540.69;;;12.14;65.22
43161;BME280;40968;52.342;5.528;2023-05-20T04:51:45;102540.44;;;12.19;65.30
43161;BME280;40968;52.342;5.528;2023-05-20T04:54:14;102547.22;;;12.26;65.21
43161;BME280;40968;52.342;5.528;2023-05-20T04:56:42;102552.34;;;12.31;65.25
43161;BME280;40968;52.342;5.528;2023-05-20T04:59:08;102548.53;;;12.35;65.35
43161;BME280;40968;52.342;5.528;2023-05-20T05:01:35;102549.97;;;12.42;65.11
43161;BME280;40968;52.342;5.528;2023-05-20T05:04:02;102551.53;;;12.46;65.04
43161;BME280;40968;52.342;5.528;2023-05-20T05:06:30;102554.66;;;12.54;65.07
43161;BME280;40968;52.342;5.528;2023-05-20T05:08:57;102544.59;;;12.58;64.87
43161;BME280;40968;52.342;5.528;2023-05-20T05:11:23;102547.19;;;12.59;64.65
43161;BME280;40968;52.342;5.528;2023-05-20T05:13:50;102486.38;;;12.25;64.54
43161;BME280;40968;52.342;5.528;2023-05-20T05:16:17;102492.25;;;12.32;64.55
43161;BME280;40968;52.342;5.528;2023-05-20T05:18:43;102537.28;;;12.60;64.27
43161;BME280;40968;52.342;5.528;2023-05-20T05:21:10;102485.91;;;12.33;64.44
43161;BME280;40968;52.342;5.528;2023-05-20T05:23:38;102448.63;;;12.10;64.43
43161;BME280;40968;52.342;5.528;2023-05-20T05:26:06;102479.75;;;12.31;64.61
43161;BME280;40968;52.342;5.528;2023-05-20T05:28:33;102490.81;;;12.42;64.44
43161;BME280;40968;52.342;5.528;2023-05-20T05:31:00;102495.13;;;12.44;64.36
43161;BME280;40968;52.342;5.528;2023-05-20T05:33:27;102486.53;;;12.38;64.38
43161;BME280;40968;52.342;5.528;2023-05-20T05:35:54;102488.16;;;12.40;64.32
43161;BME280;40968;52.342;5.528;2023-05-20T05:38:23;102533.31;;;12.67;64.14
43161;BME280;40968;52.342;5.528;2023-05-20T05:40:51;102517.78;;;12.56;64.31
43161;BME280;40968;52.342;5.528;2023-05-20T05:43:18;102531.47;;;12.68;64.17
43161;BME280;40968;52.342;5.528;2023-05-20T05:45:45;102412.19;;;12.05;64.35
43161;BME280;40968;52.342;5.528;2023-05-20T05:48:11;102526.91;;;12.70;64.34
43161;BME280;40968;52.342;5.528;2023-05-20T05:50:38;102502.84;;;12.67;64.23
43161;BME280;40968;52.342;5.528;2023-05-20T05:53:05;102530.00;;;12.78;64.48
43161;BME280;40968;52.342;5.528;2023-05-20T05:55:31;102518.09;;;12.82;64.06
43161;BME280;40968;52.342;5.528;2023-05-20T05:57:59;102522.53;;;12.83;63.95
43161;BME280;40968;52.342;5.528;2023-05-20T06:00:26;102479.94;;;12.59;63.86
43161;BME280;40968;52.342;5.528;2023-05-20T06:02:52;102520.47;;;12.88;64.04
43161;BME280;40968;52.342;5.528;2023-05-20T06:05:19;102524.59;;;12.94;63.58
43161;BME280;40968;52.342;5.528;2023-05-20T06:07:46;102527.16;;;12.97;63.90
43161;BME280;40968;52.342;5.528;2023-05-20T06:10:12;102520.78;;;12.98;63.51
43161;BME280;40968;52.342;5.528;2023-05-20T06:12:39;102526.00;;;13.01;63.63
43161;BME280;40968;52.342;5.528;2023-05-20T06:15:08;102381.97;;;12.17;63.83
43161;BME280;40968;52.342;5.528;2023-05-20T06:17:35;102458.16;;;12.64;63.50
43161;BME280;40968;52.342;5.528;2023-05-20T06:20:02;102531.69;;;13.11;63.61
43161;BME280;40968;52.342;5.528;2023-05-20T06:22:29;102528.75;;;13.16;63.36
43161;BME280;40968;52.342;5.528;2023-05-20T06:24:55;102531.16;;;13.20;63.57
43161;BME280;40968;52.342;5.528;2023-05-20T06:27:25;102532.75;;;13.24;63.77
43161;BME280;40968;52.342;5.528;2023-05-20T06:29:51;102461.97;;;12.92;63.26
43161;BME280;40968;52.342;5.528;2023-05-20T06:32:19;102492.13;;;13.13;63.01
43161;BME280;40968;52.342;5.528;2023-05-20T06:34:46;102519.50;;;13.36;62.99
43161;BME280;40968;52.342;5.528;2023-05-20T06:37:13;102244.66;;;11.74;62.70
43161;BME280;40968;52.342;5.528;2023-05-20T06:39:39;102492.53;;;13.21;62.57
43161;BME280;40968;52.342;5.528;2023-05-20T06:42:06;102520.91;;;13.43;62.73
43161;BME280;40968;52.342;5.528;2023-05-20T06:44:32;102453.75;;;13.09;62.97
43161;BME280;40968;52.342;5.528;2023-05-20T06:46:59;102467.25;;;13.24;62.21
43161;BME280;40968;52.342;5.528;2023-05-20T06:49:27;102458.78;;;13.16;61.82
43161;BME280;40968;52.342;5.528;2023-05-20T06:51:53;102475.06;;;13.29;61.59
43161;BME280;40968;52.342;5.528;2023-05-20T06:54:20;102510.84;;;13.61;61.88
43161;BME280;40968;52.342;5.528;2023-05-20T06:56:47;102506.91;;;13.67;61.50
43161;BME280;40968;52.342;5.528;2023-05-20T06:59:13;102296.06;;;12.46;61.68
43161;BME280;40968;52.342;5.528;2023-05-20T07:01:40;102455.41;;;13.42;61.45
43161;BME280;40968;52.342;5.528;2023-05-20T07:04:07;102496.91;;;13.83;61.40
43161;BME280;40968;52.342;5.528;2023-05-20T07:06:35;102500.19;;;13.88;61.13
43161;BME280;40968;52.342;5.528;2023-05-20T07:09:01;102457.28;;;13.71;60.65
43161;BME280;40968;52.342;5.528;2023-05-20T07:11:29;102499.72;;;13.96;60.80
43161;BME280;40968;52.342;5.528;2023-05-20T07:13:56;102394.50;;;13.40;60.73
43161;BME280;40968;52.342;5.528;2023-05-20T07:16:22;102469.59;;;13.89;60.54
43161;BME280;40968;52.342;5.528;2023-05-20T07:18:49;102440.06;;;13.73;59.94
43161;BME280;40968;52.342;5.528;2023-05-20T07:21:16;102503.88;;;14.16;59.71
43161;BME280;40968;52.342;5.528;2023-05-20T07:23:43;102525.81;;;14.24;59.84
43161;BME280;40968;52.342;5.528;2023-05-20T07:26:10;102363.47;;;13.49;59.52
43161;BME280;40968;52.342;5.528;2023-05-20T07:28:37;102186.56;;;12.48;59.35
43161;BME280;40968;52.342;5.528;2023-05-20T07:31:04;102501.22;;;14.43;59.35
43161;BME280;40968;52.342;5.528;2023-05-20T07:33:31;102375.84;;;13.80;58.87
43161;BME280;40968;52.342;5.528;2023-05-20T07:35:57;102463.81;;;14.24;58.71
43161;BME280;40968;52.342;5.528;2023-05-20T07:38:24;102441.63;;;14.34;58.33
43161;BME280;40968;52.342;5.528;2023-05-20T07:40:52;102412.56;;;14.24;58.04
43161;BME280;40968;52.342;5.528;2023-05-20T07:43:19;102491.06;;;14.76;57.80
43161;BME280;40968;52.342;5.528;2023-05-20T07:45:45;102402.91;;;14.35;57.47
43161;BME280;40968;52.342;5.528;2023-05-20T07:48:12;102295.59;;;13.85;57.70
43161;BME280;40968;52.342;5.528;2023-05-20T07:50:39;102476.91;;;15.00;57.16
43161;BME280;40968;52.342;5.528;2023-05-20T07:53:06;102388.41;;;14.50;57.18
43161;BME280;40968;52.342;5.528;2023-05-20T07:55:33;102478.03;;;15.10;56.56
43161;BME280;40968;52.342;5.528;2023-05-20T07:58:02;102472.88;;;15.20;56.81
43161;BME280;40968;52.342;5.528;2023-05-20T08:00:29;102470.50;;;15.28;56.28
43161;BME280;40968;52.342;5.528;2023-05-20T08:02:56;102470.94;;;15.35;55.66
43161;BME280;40968;52.342;5.528;2023-05-20T08:05:22;102394.22;;;14.99;55.24
43161;BME280;40968;52.342;5.528;2023-05-20T08:07:49;102459.38;;;15.46;55.53
43161;BME280;40968;52.342;5.528;2023-05-20T08:10:15;102417.56;;;15.38;55.06
43161;BME280;40968;52.342;5.528;2023-05-20T08:12:42;102425.47;;;15.54;54.53
43161;BME280;40968;52.342;5.528;2023-05-20T08:15:10;102458.09;;;15.77;54.10
43161;BME280;40968;52.342;5.528;2023-05-20T08:17:37;102314.91;;;15.00;54.23
43161;BME280;40968;52.342;5.528;2023-05-20T08:20:05;102458.78;;;15.94;53.06
43161;BME280;40968;52.342;5.528;2023-05-20T08:22:32;102466.66;;;15.97;51.59
43161;BME280;40968;52.342;5.528;2023-05-20T08:24:59;102461.06;;;16.00;51.48
43161;BME280;40968;52.342;5.528;2023-05-20T08:27:25;102255.09;;;14.80;52.43
43161;BME280;40968;52.342;5.528;2023-05-20T08:29:52;102416.19;;;15.84;51.87
43161;BME280;40968;52.342;5.528;2023-05-20T08:32:20;102405.69;;;15.93;52.38
43161;BME280;40968;52.342;5.528;2023-05-20T08:34:46;102408.47;;;16.04;52.68
43161;BME280;40968;52.342;5.528;2023-05-20T08:37:14;102369.78;;;15.90;51.89
43161;BME280;40968;52.342;5.528;2023-05-20T08:39:41;102338.19;;;15.78;51.28
43161;BME280;40968;52.342;5.528;2023-05-20T08:42:09;102401.47;;;16.25;50.99
43161;BME280;40968;52.342;5.528;2023-05-20T08:44:39;102449.53;;;16.59;49.90
43161;BME280;40968;52.342;5.528;2023-05-20T08:47:06;102441.81;;;16.66;50.10
43161;BME280;40968;52.342;5.528;2023-05-20T08:49:35;102445.88;;;16.71;49.48
43161;BME280;40968;52.342;5.528;2023-05-20T08:52:02;102440.91;;;16.78;49.37
43161;BME280;40968;52.342;5.528;2023-05-20T08:54:38;102328.16;;;16.17;50.07
43161;BME280;40968;52.342;5.528;2023-05-20T08:57:08;102433.47;;;16.93;50.20
43161;BME280;40968;52.342;5.528;2023-05-20T08:59:39;102359.56;;;16.55;49.52
43161;BME280;40968;52.342;5.528;2023-05-20T09:02:06;102334.16;;;16.34;48.88
43161;BME280;40968;52.342;5.528;2023-05-20T09:04:35;102091.38;;;15.05;48.09
43161;BME280;40968;52.342;5.528;2023-05-20T09:07:02;102316.97;;;16.46;48.54
43161;BME280;40968;52.342;5.528;2023-05-20T09:09:29;102331.34;;;16.71;48.59
43161;BME280;40968;52.342;5.528;2023-05-20T09:11:56;102419.69;;;17.43;48.04
43161;BME280;40968;52.342;5.528;2023-05-20T09:14:22;102349.66;;;16.92;48.36
43161;BME280;40968;52.342;5.528;2023-05-20T09:16:51;102287.78;;;16.74;46.50
43161;BME280;40968;52.342;5.528;2023-05-20T09:19:19;102431.91;;;17.60;46.45
43161;BME280;40968;52.342;5.528;2023-05-20T09:21:47;102317.66;;;16.97;45.63
43161;BME280;40968;52.342;5.528;2023-05-20T09:24:13;102422.19;;;17.69;45.71
43161;BME280;40968;52.342;5.528;2023-05-20T09:26:40;102338.13;;;17.23;45.50
43161;BME280;40968;52.342;5.528;2023-05-20T09:29:07;102414.94;;;17.81;46.14
43161;BME280;40968;52.342;5.528;2023-05-20T09:31:34;102331.63;;;17.37;46.69
43161;BME280;40968;52.342;5.528;2023-05-20T09:34:02;102399.50;;;17.81;44.95
43161;BME280;40968;52.342;5.528;2023-05-20T09:36:31;102414.31;;;18.00;45.60
43161;BME280;40968;52.342;5.528;2023-05-20T09:39:02;102370.56;;;17.82;45.64
43161;BME280;40968;52.342;5.528;2023-05-20T09:41:32;102414.06;;;18.14;45.17
43161;BME280;40968;52.342;5.528;2023-05-20T09:43:59;102313.88;;;17.67;44.83
43161;BME280;40968;52.342;5.528;2023-05-20T09:46:28;102359.31;;;18.09;43.96
43161;BME280;40968;52.342;5.528;2023-05-20T09:48:56;102402.91;;;18.40;44.58
43161;BME280;40968;52.342;5.528;2023-05-20T09:51:23;102400.69;;;18.45;43.19
43161;BME280;40968;52.342;5.528;2023-05-20T09:53:50;102380.69;;;18.46;43.45
43161;BME280;40968;52.342;5.528;2023-05-20T09:56:22;102248.91;;;17.77;42.99
43161;BME280;40968;52.342;5.528;2023-05-20T09:58:52;102323.53;;;18.27;42.26
43161;BME280;40968;52.342;5.528;2023-05-20T10:01:22;102388.44;;;18.83;42.48
43161;BME280;40968;52.342;5.528;2023-05-20T10:03:49;102336.44;;;18.67;42.01
43161;BME280;40968;52.342;5.528;2023-05-20T10:06:27;102381.72;;;18.99;42.08
43161;BME280;40968;52.342;5.528;2023-05-20T10:09:16;102349.41;;;18.84;40.73
43161;BME280;40968;52.342;5.528;2023-05-20T10:11:52;102373.75;;;19.07;41.15
43161;BME280;40968;52.342;5.528;2023-05-20T10:14:31;102382.72;;;19.19;41.73
43161;BME280;40968;52.342;5.528;2023-05-20T10:17:04;102370.38;;;19.15;40.68
43161;BME280;40968;52.342;5.528;2023-05-20T10:19:34;102372.44;;;19.22;41.06
43161;BME280;40968;52.342;5.528;2023-05-20T10:22:02;102267.75;;;18.76;40.70
43161;BME280;40968;52.342;5.528;2023-05-20T10:24:30;102370.28;;;19.47;41.25
43161;BME280;40968;52.342;5.528;2023-05-20T10:27:01;102360.50;;;19.66;41.17
43161;BME280;40968;52.342;5.528;2023-05-20T10:29:28;102232.69;;;18.94;40.70
43161;BME280;40968;52.342;5.528;2023-05-20T10:31:55;102352.13;;;19.88;39.61
43161;BME280;40968;52.342;5.528;2023-05-20T10:34:22;102347.03;;;19.95;39.49
43161;BME280;40968;52.342;5.528;2023-05-20T10:36:58;102356.47;;;20.01;39.90
43161;BME280;40968;52.342;5.528;2023-05-20T10:39:25;102344.16;;;19.97;38.23
43161;BME280;40968;52.342;5.528;2023-05-20T10:42:05;102314.34;;;19.85;39.52
43161;BME280;40968;52.342;5.528;2023-05-20T10:44:42;102324.13;;;19.98;38.36
43161;BME280;40968;52.342;5.528;2023-05-20T10:47:09;102245.56;;;19.64;38.70
43161;BME280;40968;52.342;5.528;2023-05-20T10:49:40;102329.91;;;20.24;38.73
43161;BME280;40968;52.342;5.528;2023-05-20T10:52:07;102294.06;;;20.19;38.17
43161;BME280;40968;52.342;5.528;2023-05-20T10:54:36;102303.81;;;20.41;38.52
43161;BME280;40968;52.342;5.528;2023-05-20T10:57:09;102317.97;;;20.64;38.20
43161;BME280;40968;52.342;5.528;2023-05-20T10:59:36;102316.41;;;20.62;37.49
43161;BME280;40968;52.342;5.528;2023-05-20T11:02:03;102317.28;;;20.52;37.51
43161;BME280;40968;52.342;5.528;2023-05-20T11:04:31;102316.13;;;20.55;37.86
43161;BME280;40968;52.342;5.528;2023-05-20T11:06:58;102308.50;;;20.68;37.64
43161;BME280;40968;52.342;5.528;2023-05-20T11:09:24;102318.25;;;20.91;38.28
43161;BME280;40968;52.342;5.528;2023-05-20T11:11:52;102107.03;;;19.92;38.67
43161;BME280;40968;52.342;5.528;2023-05-20T11:14:21;102309.81;;;20.94;37.93
43161;BME280;40968;52.342;5.528;2023-05-20T11:16:51;102240.44;;;20.59;38.06
43161;BME280;40968;52.342;5.528;2023-05-20T11:19:18;102255.91;;;20.87;37.69
43161;BME280;40968;52.342;5.528;2023-05-20T11:21:46;102301.94;;;21.28;38.22
43161;BME280;40968;52.342;5.528;2023-05-20T11:24:13;102272.13;;;21.17;37.15
43161;BME280;40968;52.342;5.528;2023-05-20T11:26:39;102304.09;;;21.34;36.60
43161;BME280;40968;52.342;5.528;2023-05-20T11:29:06;102309.22;;;21.37;36.83
43161;BME280;40968;52.342;5.528;2023-05-20T11:31:36;102302.69;;;21.20;37.40
43161;BME280;40968;52.342;5.528;2023-05-20T11:34:03;102220.63;;;20.86;37.39
43161;BME280;40968;52.342;5.528;2023-05-20T11:36:30;102294.50;;;21.20;37.55
43161;BME280;40968;52.342;5.528;2023-05-20T11:38:56;102293.41;;;21.13;38.48
43161;BME280;40968;52.342;5.528;2023-05-20T11:41:25;102296.81;;;21.25;37.82
43161;BME280;40968;52.342;5.528;2023-05-20T11:43:56;102297.97;;;21.23;37.14
43161;BME280;40968;52.342;5.528;2023-05-20T11:46:23;102293.13;;;21.44;38.57
43161;BME280;40968;52.342;5.528;2023-05-20T11:48:52;102230.31;;;21.36;37.14
43161;BME280;40968;52.342;5.528;2023-05-20T11:51:22;102287.28;;;21.95;36.52
43161;BME280;40968;52.342;5.528;2023-05-20T11:53:49;102278.56;;;22.09;35.35
43161;BME280;40968;52.342;5.528;2023-05-20T11:56:15;102269.50;;;22.27;35.86
43161;BME280;40968;52.342;5.528;2023-05-20T11:58:43;102118.09;;;21.59;35.72
43161;BME280;40968;52.342;5.528;2023-05-20T12:01:09;102217.53;;;22.18;35.63
43161;BME280;40968;52.342;5.528;2023-05-20T12:03:36;102166.97;;;22.06;35.12
43161;BME280;40968;52.342;5.528;2023-05-20T12:06:04;102225.03;;;22.52;34.91
43161;BME280;40968;52.342;5.528;2023-05-20T12:08:30;102186.41;;;22.47;34.70
43161;BME280;40968;52.342;5.528;2023-05-20T12:10:57;102223.88;;;22.90;34.83
43161;BME280;40968;52.342;5.528;2023-05-20T12:13:24;102264.78;;;23.26;34.97
43161;BME280;40968;52.342;5.528;2023-05-20T12:15:50;102264.63;;;23.01;34.02
43161;BME280;40968;52.342;5.528;2023-05-20T12:18:17;102195.00;;;22.61;34.20
43161;BME280;40968;52.342;5.528;2023-05-20T12:20:43;102246.00;;;23.05;34.36
43161;BME280;40968;52.342;5.528;2023-05-20T12:23:11;102242.47;;;23.12;34.42
43161;BME280;40968;52.342;5.528;2023-05-20T12:25:38;102171.13;;;22.63;34.52
43161;BME280;40968;52.342;5.528;2023-05-20T12:28:05;102260.72;;;23.12;34.71
43161;BME280;40968;52.342;5.528;2023-05-20T12:30:32;102241.97;;;22.82;34.23
43161;BME280;40968;52.342;5.528;2023-05-20T12:32:59;102250.31;;;22.55;34.25
43161;BME280;40968;52.342;5.528;2023-05-20T12:35:35;102188.72;;;22.60;33.88
43161;BME280;40968;52.342;5.528;2023-05-20T12:38:03;102246.00;;;23.05;34.81
43161;BME280;40968;52.342;5.528;2023-05-20T12:40:31;102148.63;;;22.43;34.29
43161;BME280;40968;52.342;5.528;2023-05-20T12:42:59;102199.25;;;22.55;34.45
43161;BME280;40968;52.342;5.528;2023-05-20T12:45:26;102189.69;;;22.33;34.27
43161;BME280;40968;52.342;5.528;2023-05-20T12:47:53;102041.41;;;21.62;34.41
43161;BME280;40968;52.342;5.528;2023-05-20T12:50:20;102229.81;;;23.11;34.65
43161;BME280;40968;52.342;5.528;2023-05-20T12:52:46;102229.13;;;23.44;34.79